Aviation Digital Data Service (ADDS)

Output produced by METARs form (1443 UTC 22 April 2019)
found at http://www.aviationweather.gov/metar/data/
 
METAR text: KIND 221354Z 13008KT 10SM FEW150 SCT250 15/06 A3018 RMK AO2 SLP218 T01500056
Conditions at: KIND (INDIANAPOLIS , IN, US) observed 1354 UTC 22 April 2019
Temperature: 15.0°C (59°F)
Dewpoint: 5.6°C (42°F) [RH = 53%]
Pressure (altimeter): 30.18 inches Hg (1022.1 mb)
[Sea-level pressure: 1021.8 mb]
Winds: from the SE (130 degrees) at 9 MPH (8 knots; 4.1 m/s)
Visibility: 10 or more miles (16+ km)
Ceiling: at least 12,000 feet AGL
Clouds: few clouds at 15000 feet AGL
scattered clouds at 25000 feet AGL
Weather: no significant weather observed at this time

METAR text: KIND 221254Z 12008KT 10SM FEW100 FEW250 13/04 A3020 RMK AO2 SLP224 T01280044
Conditions at: KIND (INDIANAPOLIS , IN, US) observed 1254 UTC 22 April 2019
Temperature: 12.8°C (55°F)
Dewpoint: 4.4°C (40°F) [RH = 57%]
Pressure (altimeter): 30.20 inches Hg (1022.8 mb)
[Sea-level pressure: 1022.4 mb]
Winds: from the ESE (120 degrees) at 9 MPH (8 knots; 4.1 m/s)
Visibility: 10 or more miles (16+ km)
Ceiling: at least 12,000 feet AGL
Clouds: few clouds at 10000 feet AGL
few clouds at 25000 feet AGL
Weather: no significant weather observed at this time

METAR text: KIND 221154Z 12004KT 10SM FEW100 FEW250 10/03 A3018 RMK AO2 SLP219 T01000033 10117 20083 53018
Conditions at: KIND (INDIANAPOLIS , IN, US) observed 1154 UTC 22 April 2019
Temperature: 10.0°C (50°F)
Dewpoint: 3.3°C (38°F) [RH = 63%]
Pressure (altimeter): 30.18 inches Hg (1022.1 mb)
[Sea-level pressure: 1021.9 mb]
Winds: from the ESE (120 degrees) at 5 MPH (4 knots; 2.1 m/s)
Visibility: 10 or more miles (16+ km)
Ceiling: at least 12,000 feet AGL
Clouds: few clouds at 10000 feet AGL
few clouds at 25000 feet AGL
Weather: no significant weather observed at this time

METAR text: KIND 221054Z 12003KT 10SM FEW250 09/02 A3016 RMK AO2 SLP211 T00940022
Conditions at: KIND (INDIANAPOLIS , IN, US) observed 1054 UTC 22 April 2019
Temperature: 9.4°C (49°F)
Dewpoint: 2.2°C (36°F) [RH = 61%]
Pressure (altimeter): 30.16 inches Hg (1021.4 mb)
[Sea-level pressure: 1021.1 mb]
Winds: from the ESE (120 degrees) at 3 MPH (3 knots; 1.5 m/s)
Visibility: 10 or more miles (16+ km)
Ceiling: at least 12,000 feet AGL
Clouds: few clouds at 25000 feet AGL
Weather: no significant weather observed at this time

METAR text: KIND 220954Z 11006KT 10SM CLR 09/03 A3013 RMK AO2 SLP201 T00890028
Conditions at: KIND (INDIANAPOLIS , IN, US) observed 0954 UTC 22 April 2019
Temperature: 8.9°C (48°F)
Dewpoint: 2.8°C (37°F) [RH = 66%]
Pressure (altimeter): 30.13 inches Hg (1020.4 mb)
[Sea-level pressure: 1020.1 mb]
Winds: from the ESE (110 degrees) at 7 MPH (6 knots; 3.1 m/s)
Visibility: 10 or more miles (16+ km)
Ceiling: at least 12,000 feet AGL
Clouds: sky clear below 12,000 feet AGL
Weather: no significant weather observed at this time

METAR text: KIND 220854Z 12006KT 10SM CLR 09/03 A3012 RMK AO2 SLP199 T00890028 55006
Conditions at: KIND (INDIANAPOLIS , IN, US) observed 0854 UTC 22 April 2019
Temperature: 8.9°C (48°F)
Dewpoint: 2.8°C (37°F) [RH = 66%]
Pressure (altimeter): 30.12 inches Hg (1020.1 mb)
[Sea-level pressure: 1019.9 mb]
Winds: from the ESE (120 degrees) at 7 MPH (6 knots; 3.1 m/s)
Visibility: 10 or more miles (16+ km)
Ceiling: at least 12,000 feet AGL
Clouds: sky clear below 12,000 feet AGL
Weather: no significant weather observed at this time

METAR text: KIND 220754Z 00000KT 10SM CLR 11/02 A3012 RMK AO2 SLP198 T01060022
Conditions at: KIND (INDIANAPOLIS , IN, US) observed 0754 UTC 22 April 2019
Temperature: 10.6°C (51°F)
Dewpoint: 2.2°C (36°F) [RH = 56%]
Pressure (altimeter): 30.12 inches Hg (1020.1 mb)
[Sea-level pressure: 1019.8 mb]
Winds: calm
Visibility: 10 or more miles (16+ km)
Ceiling: at least 12,000 feet AGL
Clouds: sky clear below 12,000 feet AGL
Weather: no significant weather observed at this time

METAR text: KIND 220654Z 15004KT 10SM CLR 12/02 A3012 RMK AO2 SLP199 T01170017
Conditions at: KIND (INDIANAPOLIS , IN, US) observed 0654 UTC 22 April 2019
Temperature: 11.7°C (53°F)
Dewpoint: 1.7°C (35°F) [RH = 50%]
Pressure (altimeter): 30.12 inches Hg (1020.1 mb)
[Sea-level pressure: 1019.9 mb]
Winds: from the SSE (150 degrees) at 5 MPH (4 knots; 2.1 m/s)
Visibility: 10 or more miles (16+ km)
Ceiling: at least 12,000 feet AGL
Clouds: sky clear below 12,000 feet AGL
Weather: no significant weather observed at this time

METAR text: KIND 220554Z 15006KT 10SM CLR 11/02 A3014 RMK AO2 SLP206 T01110022 10183 20111 51006
Conditions at: KIND (INDIANAPOLIS , IN, US) observed 0554 UTC 22 April 2019
Temperature: 11.1°C (52°F)
Dewpoint: 2.2°C (36°F) [RH = 54%]
Pressure (altimeter): 30.14 inches Hg (1020.7 mb)
[Sea-level pressure: 1020.6 mb]
Winds: from the SSE (150 degrees) at 7 MPH (6 knots; 3.1 m/s)
Visibility: 10 or more miles (16+ km)
Ceiling: at least 12,000 feet AGL
Clouds: sky clear below 12,000 feet AGL
Weather: no significant weather observed at this time

METAR text: KIND 220454Z 16006KT 10SM CLR 13/02 A3014 RMK AO2 SLP205 T01280017 402220028
Conditions at: KIND (INDIANAPOLIS , IN, US) observed 0454 UTC 22 April 2019
Temperature: 12.8°C (55°F)
Dewpoint: 1.7°C (35°F) [RH = 47%]
Pressure (altimeter): 30.14 inches Hg (1020.7 mb)
[Sea-level pressure: 1020.5 mb]
Winds: from the SSE (160 degrees) at 7 MPH (6 knots; 3.1 m/s)
Visibility: 10 or more miles (16+ km)
Ceiling: at least 12,000 feet AGL
Clouds: sky clear below 12,000 feet AGL
Weather: no significant weather observed at this time

METAR text: KIND 220354Z 14008KT 10SM CLR 13/02 A3013 RMK AO2 SLP202 T01280022
Conditions at: KIND (INDIANAPOLIS , IN, US) observed 0354 UTC 22 April 2019
Temperature: 12.8°C (55°F)
Dewpoint: 2.2°C (36°F) [RH = 48%]
Pressure (altimeter): 30.13 inches Hg (1020.4 mb)
[Sea-level pressure: 1020.2 mb]
Winds: from the SE (140 degrees) at 9 MPH (8 knots; 4.1 m/s)
Visibility: 10 or more miles (16+ km)
Ceiling: at least 12,000 feet AGL
Clouds: sky clear below 12,000 feet AGL
Weather: no significant weather observed at this time

METAR text: KIND 220254Z 13007KT 10SM CLR 13/03 A3012 RMK AO2 SLP201 T01330028 51015
Conditions at: KIND (INDIANAPOLIS , IN, US) observed 0254 UTC 22 April 2019
Temperature: 13.3°C (56°F)
Dewpoint: 2.8°C (37°F) [RH = 49%]
Pressure (altimeter): 30.12 inches Hg (1020.1 mb)
[Sea-level pressure: 1020.1 mb]
Winds: from the SE (130 degrees) at 8 MPH (7 knots; 3.6 m/s)
Visibility: 10 or more miles (16+ km)
Ceiling: at least 12,000 feet AGL
Clouds: sky clear below 12,000 feet AGL
Weather: no significant weather observed at this time

METAR text: KIND 220154Z 13007KT 10SM FEW250 14/03 A3011 RMK AO2 SLP199 T01440028
Conditions at: KIND (INDIANAPOLIS , IN, US) observed 0154 UTC 22 April 2019
Temperature: 14.4°C (58°F)
Dewpoint: 2.8°C (37°F) [RH = 46%]
Pressure (altimeter): 30.11 inches Hg (1019.7 mb)
[Sea-level pressure: 1019.9 mb]
Winds: from the SE (130 degrees) at 8 MPH (7 knots; 3.6 m/s)
Visibility: 10 or more miles (16+ km)
Ceiling: at least 12,000 feet AGL
Clouds: few clouds at 25000 feet AGL
Weather: no significant weather observed at this time

METAR text: KIND 220054Z 13008KT 10SM FEW250 16/03 A3010 RMK AO2 SLP193 T01560028
Conditions at: KIND (INDIANAPOLIS , IN, US) observed 0054 UTC 22 April 2019
Temperature: 15.6°C (60°F)
Dewpoint: 2.8°C (37°F) [RH = 42%]
Pressure (altimeter): 30.10 inches Hg (1019.4 mb)
[Sea-level pressure: 1019.3 mb]
Winds: from the SE (130 degrees) at 9 MPH (8 knots; 4.1 m/s)
Visibility: 10 or more miles (16+ km)
Ceiling: at least 12,000 feet AGL
Clouds: few clouds at 25000 feet AGL
Weather: no significant weather observed at this time

METAR text: KIND 212354Z 14006KT 10SM FEW250 18/M01 A3008 RMK AO2 SLP186 T01781006 10222 20178 55001
Conditions at: KIND (INDIANAPOLIS , IN, US) observed 2354 UTC 21 April 2019
Temperature: 17.8°C (64°F)
Dewpoint: -0.6°C (31°F) [RH = 29%]
Pressure (altimeter): 30.08 inches Hg (1018.7 mb)
[Sea-level pressure: 1018.6 mb]
Winds: from the SE (140 degrees) at 7 MPH (6 knots; 3.1 m/s)
Visibility: 10 or more miles (16+ km)
Ceiling: at least 12,000 feet AGL
Clouds: few clouds at 25000 feet AGL
Weather: no significant weather observed at this time

METAR text: KIND 212254Z 13003KT 10SM FEW250 20/01 A3008 RMK AO2 SLP185 T02000011
Conditions at: KIND (INDIANAPOLIS , IN, US) observed 2254 UTC 21 April 2019
Temperature: 20.0°C (68°F)
Dewpoint: 1.1°C (34°F) [RH = 28%]
Pressure (altimeter): 30.08 inches Hg (1018.7 mb)
[Sea-level pressure: 1018.5 mb]
Winds: from the SE (130 degrees) at 3 MPH (3 knots; 1.5 m/s)
Visibility: 10 or more miles (16+ km)
Ceiling: at least 12,000 feet AGL
Clouds: few clouds at 25000 feet AGL
Weather: no significant weather observed at this time

METAR text: KIND 212154Z 00000KT 10SM FEW250 21/M01 A3008 RMK AO2 SLP186 T02061006
Conditions at: KIND (INDIANAPOLIS , IN, US) observed 2154 UTC 21 April 2019
Temperature: 20.6°C (69°F)
Dewpoint: -0.6°C (31°F) [RH = 24%]
Pressure (altimeter): 30.08 inches Hg (1018.7 mb)
[Sea-level pressure: 1018.6 mb]
Winds: calm
Visibility: 10 or more miles (16+ km)
Ceiling: at least 12,000 feet AGL
Clouds: few clouds at 25000 feet AGL
Weather: no significant weather observed at this time

METAR text: KIND 212054Z 22004KT 10SM FEW250 21/02 A3008 RMK AO2 SLP186 T02060017 58001
Conditions at: KIND (INDIANAPOLIS , IN, US) observed 2054 UTC 21 April 2019
Temperature: 20.6°C (69°F)
Dewpoint: 1.7°C (35°F) [RH = 28%]
Pressure (altimeter): 30.08 inches Hg (1018.7 mb)
[Sea-level pressure: 1018.6 mb]
Winds: from the SW (220 degrees) at 5 MPH (4 knots; 2.1 m/s)
Visibility: 10 or more miles (16+ km)
Ceiling: at least 12,000 feet AGL
Clouds: few clouds at 25000 feet AGL
Weather: no significant weather observed at this time

METAR text: KIND 211954Z VRB03KT 10SM FEW250 20/03 A3008 RMK AO2 SLP187 T02000028
Conditions at: KIND (INDIANAPOLIS , IN, US) observed 1954 UTC 21 April 2019
Temperature: 20.0°C (68°F)
Dewpoint: 2.8°C (37°F) [RH = 32%]
Pressure (altimeter): 30.08 inches Hg (1018.7 mb)
[Sea-level pressure: 1018.7 mb]
Winds: variable direction winds at 3 MPH (3 knots; 1.5 m/s)
Visibility: 10 or more miles (16+ km)
Ceiling: at least 12,000 feet AGL
Clouds: few clouds at 25000 feet AGL
Weather: no significant weather observed at this time

METAR text: KIND 211854Z VRB03KT 10SM R05L/4000VP6000FT SCT250 19/01 A3009 RMK AO2 SLP187 T01940011
Conditions at: KIND (INDIANAPOLIS , IN, US) observed 1854 UTC 21 April 2019
Temperature: 19.4°C (67°F)
Dewpoint: 1.1°C (34°F) [RH = 29%]
Pressure (altimeter): 30.09 inches Hg (1019.0 mb)
[Sea-level pressure: 1018.7 mb]
Winds: variable direction winds at 3 MPH (3 knots; 1.5 m/s)
Visibility: 10 or more miles (16+ km)
Ceiling: at least 12,000 feet AGL
Clouds: scattered clouds at 25000 feet AGL
Weather: no significant weather observed at this time

METAR text: KIND 211754Z VRB03KT 10SM SCT250 18/03 A3008 RMK AO2 SLP188 T01780028 10183 20028 51005
Conditions at: KIND (INDIANAPOLIS , IN, US) observed 1754 UTC 21 April 2019
Temperature: 17.8°C (64°F)
Dewpoint: 2.8°C (37°F) [RH = 37%]
Pressure (altimeter): 30.08 inches Hg (1018.7 mb)
[Sea-level pressure: 1018.8 mb]
Winds: variable direction winds at 3 MPH (3 knots; 1.5 m/s)
Visibility: 10 or more miles (16+ km)
Ceiling: at least 12,000 feet AGL
Clouds: scattered clouds at 25000 feet AGL
Weather: no significant weather observed at this time

METAR text: KIND 211654Z 00000KT 10SM FEW250 16/M04 A3008 RMK AO2 SLP188 T01611039
Conditions at: KIND (INDIANAPOLIS , IN, US) observed 1654 UTC 21 April 2019
Temperature: 16.1°C (61°F)
Dewpoint: -3.9°C (25°F) [RH = 25%]
Pressure (altimeter): 30.08 inches Hg (1018.7 mb)
[Sea-level pressure: 1018.8 mb]
Winds: calm
Visibility: 10 or more miles (16+ km)
Ceiling: at least 12,000 feet AGL
Clouds: few clouds at 25000 feet AGL
Weather: no significant weather observed at this time

METAR text: KIND 211554Z 17003KT 10SM FEW250 13/07 A3009 RMK AO2 SLP191 T01280067
Conditions at: KIND (INDIANAPOLIS , IN, US) observed 1554 UTC 21 April 2019
Temperature: 12.8°C (55°F)
Dewpoint: 6.7°C (44°F) [RH = 66%]
Pressure (altimeter): 30.09 inches Hg (1019.0 mb)
[Sea-level pressure: 1019.1 mb]
Winds: from the S (170 degrees) at 3 MPH (3 knots; 1.5 m/s)
Visibility: 10 or more miles (16+ km)
Ceiling: at least 12,000 feet AGL
Clouds: few clouds at 25000 feet AGL
Weather: no significant weather observed at this time

METAR text: KIND 211454Z 00000KT 10SM FEW004 FEW250 09/06 A3007 RMK AO2 SLP184 T00890061 51017
Conditions at: KIND (INDIANAPOLIS , IN, US) observed 1454 UTC 21 April 2019
Temperature: 8.9°C (48°F)
Dewpoint: 6.1°C (43°F) [RH = 83%]
Pressure (altimeter): 30.07 inches Hg (1018.4 mb)
[Sea-level pressure: 1018.4 mb]
Winds: calm
Visibility: 10 or more miles (16+ km)
Ceiling: at least 12,000 feet AGL
Clouds: few clouds at 400 feet AGL
few clouds at 25000 feet AGL
Weather: no significant weather observed at this time

METAR text: KIND 211403Z 12005KT 10SM SCT003 06/06 A3006 RMK AO2 T00610056
Conditions at: KIND (INDIANAPOLIS , IN, US) observed 1403 UTC 21 April 2019
Temperature: 6.1°C (43°F)
Dewpoint: 5.6°C (42°F) [RH = 97%]
Pressure (altimeter): 30.06 inches Hg (1018.0 mb)
Winds: from the ESE (120 degrees) at 6 MPH (5 knots; 2.6 m/s)
Visibility: 10 or more miles (16+ km)
Ceiling: at least 12,000 feet AGL
Clouds: scattered clouds at 300 feet AGL
Weather: no significant weather observed at this time

METAR text: KIND 211354Z 13004KT 1/8SM R05L/P6000FT BKN002 06/06 A3006 RMK AO2 SFC VIS 8 SLP182 T00560056
Conditions at: KIND (INDIANAPOLIS , IN, US) observed 1354 UTC 21 April 2019
Temperature: 5.6°C (42°F)
Dewpoint: 5.6°C (42°F) [RH = 100%]
Pressure (altimeter): 30.06 inches Hg (1018.0 mb)
[Sea-level pressure: 1018.2 mb]
Winds: from the SE (130 degrees) at 5 MPH (4 knots; 2.1 m/s)
Visibility: 0.13 miles (0.21 km)
Ceiling: 200 feet AGL
Clouds: broken clouds at 200 feet AGL
Weather: no significant weather observed at this time

METAR text: KIND 211311Z 14003KT 1/8SM R05L/1600V2800FT FG VV002 04/04 A3005 RMK AO2 T00440044
Conditions at: KIND (INDIANAPOLIS , IN, US) observed 1311 UTC 21 April 2019
Temperature: 4.4°C (40°F)
Dewpoint: 4.4°C (40°F) [RH = 100%]
Pressure (altimeter): 30.05 inches Hg (1017.7 mb)
Winds: from the SE (140 degrees) at 3 MPH (3 knots; 1.5 m/s)
Visibility: 0.13 miles (0.21 km)
Ceiling: indefinite ceiling with vertical visibility of 200 feet AGL
Clouds: obscured sky
Weather: FG  (fog)

METAR text: KIND 211254Z 00000KT 1/8SM R05L/1200V1600FT FG VV002 04/04 A3004 RMK AO2 SLP177 T00390039
Conditions at: KIND (INDIANAPOLIS , IN, US) observed 1254 UTC 21 April 2019
Temperature: 3.9°C (39°F)
Dewpoint: 3.9°C (39°F) [RH = 100%]
Pressure (altimeter): 30.04 inches Hg (1017.4 mb)
[Sea-level pressure: 1017.7 mb]
Winds: calm
Visibility: 0.13 miles (0.21 km)
Ceiling: indefinite ceiling with vertical visibility of 200 feet AGL
Clouds: obscured sky
Weather: FG  (fog)

METAR text: KIND 211154Z 21003KT 1/16SM R05L/0800V1200FT FG VV002 03/03 A3002 RMK AO2 TWR VIS 1/8 SLP168 70028 T00330033 10044 20028 51027
Conditions at: KIND (INDIANAPOLIS , IN, US) observed 1154 UTC 21 April 2019
Temperature: 3.3°C (38°F)
Dewpoint: 3.3°C (38°F) [RH = 100%]
Pressure (altimeter): 30.02 inches Hg (1016.7 mb)
[Sea-level pressure: 1016.8 mb]
Winds: from the SSW (210 degrees) at 3 MPH (3 knots; 1.5 m/s)
Visibility: 0.06 miles (0.10 km)
Ceiling: indefinite ceiling with vertical visibility of 200 feet AGL
Clouds: obscured sky
Weather: FG  (fog)

METAR text: KIND 211105Z 18003KT 1/8SM R05L/1200V1600FT FG VV002 03/03 A2999 RMK AO2 T00330033
Conditions at: KIND (INDIANAPOLIS , IN, US) observed 1105 UTC 21 April 2019
Temperature: 3.3°C (38°F)
Dewpoint: 3.3°C (38°F) [RH = 100%]
Pressure (altimeter): 29.99 inches Hg (1015.7 mb)
Winds: from the S (180 degrees) at 3 MPH (3 knots; 1.5 m/s)
Visibility: 0.13 miles (0.21 km)
Ceiling: indefinite ceiling with vertical visibility of 200 feet AGL
Clouds: obscured sky
Weather: FG  (fog)

METAR text: KIND 211054Z 00000KT 1/8SM R05L/1400V2400FT FG VV002 03/03 A2999 RMK AO2 SLP158 T00330028
Conditions at: KIND (INDIANAPOLIS , IN, US) observed 1054 UTC 21 April 2019
Temperature: 3.3°C (38°F)
Dewpoint: 2.8°C (37°F) [RH = 97%]
Pressure (altimeter): 29.99 inches Hg (1015.7 mb)
[Sea-level pressure: 1015.8 mb]
Winds: calm
Visibility: 0.13 miles (0.21 km)
Ceiling: indefinite ceiling with vertical visibility of 200 feet AGL
Clouds: obscured sky
Weather: FG  (fog)

METAR text: KIND 210954Z 25003KT 1/8SM R05L/1800V2000FT FG VV002 03/03 A2997 RMK AO2 TWR VIS 1/4 SLP152 T00330033
Conditions at: KIND (INDIANAPOLIS , IN, US) observed 0954 UTC 21 April 2019
Temperature: 3.3°C (38°F)
Dewpoint: 3.3°C (38°F) [RH = 100%]
Pressure (altimeter): 29.97 inches Hg (1015.0 mb)
[Sea-level pressure: 1015.2 mb]
Winds: from the WSW (250 degrees) at 3 MPH (3 knots; 1.5 m/s)
Visibility: 0.13 miles (0.21 km)
Ceiling: indefinite ceiling with vertical visibility of 200 feet AGL
Clouds: obscured sky
Weather: FG  (fog)

METAR text: KIND 210919Z 24004KT 1/8SM R05L/1800V2800FT FG VV002 03/03 A2995 RMK AO2 TWR VIS 1/4 T00330033
Conditions at: KIND (INDIANAPOLIS , IN, US) observed 0919 UTC 21 April 2019
Temperature: 3.3°C (38°F)
Dewpoint: 3.3°C (38°F) [RH = 100%]
Pressure (altimeter): 29.95 inches Hg (1014.3 mb)
Winds: from the WSW (240 degrees) at 5 MPH (4 knots; 2.1 m/s)
Visibility: 0.13 miles (0.21 km)
Ceiling: indefinite ceiling with vertical visibility of 200 feet AGL
Clouds: obscured sky
Weather: FG  (fog)

METAR text: KIND 210912Z 25004KT 1/8SM R05L/1600V2000FT FG VV002 04/04 A2994 RMK AO2 TWR VIS 1/4 T00390039
Conditions at: KIND (INDIANAPOLIS , IN, US) observed 0912 UTC 21 April 2019
Temperature: 3.9°C (39°F)
Dewpoint: 3.9°C (39°F) [RH = 100%]
Pressure (altimeter): 29.94 inches Hg (1014.0 mb)
Winds: from the WSW (250 degrees) at 5 MPH (4 knots; 2.1 m/s)
Visibility: 0.13 miles (0.21 km)
Ceiling: indefinite ceiling with vertical visibility of 200 feet AGL
Clouds: obscured sky
Weather: FG  (fog)

METAR text: KIND 210854Z 25005KT 1/4SM R05L/5000VP6000FT FG VV002 04/03 A2993 RMK AO2 SLP141 T00390033 53009
Conditions at: KIND (INDIANAPOLIS , IN, US) observed 0854 UTC 21 April 2019
Temperature: 3.9°C (39°F)
Dewpoint: 3.3°C (38°F) [RH = 96%]
Pressure (altimeter): 29.93 inches Hg (1013.6 mb)
[Sea-level pressure: 1014.1 mb]
Winds: from the WSW (250 degrees) at 6 MPH (5 knots; 2.6 m/s)
Visibility: 0.25 miles (0.40 km)
Ceiling: indefinite ceiling with vertical visibility of 200 feet AGL
Clouds: obscured sky
Weather: FG  (fog)

METAR text: KIND 210842Z 25006KT 1/4SM R05L/3500V4500FT FG VV002 04/04 A2993 RMK AO2 T00390039
Conditions at: KIND (INDIANAPOLIS , IN, US) observed 0842 UTC 21 April 2019
Temperature: 3.9°C (39°F)
Dewpoint: 3.9°C (39°F) [RH = 100%]
Pressure (altimeter): 29.93 inches Hg (1013.6 mb)
Winds: from the WSW (250 degrees) at 7 MPH (6 knots; 3.1 m/s)
Visibility: 0.25 miles (0.40 km)
Ceiling: indefinite ceiling with vertical visibility of 200 feet AGL
Clouds: obscured sky
Weather: FG  (fog)

METAR text: KIND 210833Z 25005KT 1/2SM R05L/4000VP6000FT FG VV002 04/04 A2993 RMK AO2 T00390039
Conditions at: KIND (INDIANAPOLIS , IN, US) observed 0833 UTC 21 April 2019
Temperature: 3.9°C (39°F)
Dewpoint: 3.9°C (39°F) [RH = 100%]
Pressure (altimeter): 29.93 inches Hg (1013.6 mb)
Winds: from the WSW (250 degrees) at 6 MPH (5 knots; 2.6 m/s)
Visibility: 0.50 miles (0.80 km)
Ceiling: indefinite ceiling with vertical visibility of 200 feet AGL
Clouds: obscured sky
Weather: FG  (fog)

METAR text: KIND 210754Z 26006KT 1/4SM R05L/2800V5000FT FG VV002 04/04 A2992 RMK AO2 SLP135 T00390039
Conditions at: KIND (INDIANAPOLIS , IN, US) observed 0754 UTC 21 April 2019
Temperature: 3.9°C (39°F)
Dewpoint: 3.9°C (39°F) [RH = 100%]
Pressure (altimeter): 29.92 inches Hg (1013.3 mb)
[Sea-level pressure: 1013.5 mb]
Winds: from the W (260 degrees) at 7 MPH (6 knots; 3.1 m/s)
Visibility: 0.25 miles (0.40 km)
Ceiling: indefinite ceiling with vertical visibility of 200 feet AGL
Clouds: obscured sky
Weather: FG  (fog)

METAR text: KIND 210654Z 25009KT 1/4SM R05L/3500V6000FT FG VV002 04/04 A2991 RMK AO2 SLP132 T00440039
Conditions at: KIND (INDIANAPOLIS , IN, US) observed 0654 UTC 21 April 2019
Temperature: 4.4°C (40°F)
Dewpoint: 3.9°C (39°F) [RH = 97%]
Pressure (altimeter): 29.91 inches Hg (1013.0 mb)
[Sea-level pressure: 1013.2 mb]
Winds: from the WSW (250 degrees) at 10 MPH (9 knots; 4.6 m/s)
Visibility: 0.25 miles (0.40 km)
Ceiling: indefinite ceiling with vertical visibility of 200 feet AGL
Clouds: obscured sky
Weather: FG  (fog)

METAR text: KIND 210612Z 24009KT 1/4SM R05L/2000V2600FT FG VV002 04/04 A2991 RMK AO2 T00390039
Conditions at: KIND (INDIANAPOLIS , IN, US) observed 0612 UTC 21 April 2019
Temperature: 3.9°C (39°F)
Dewpoint: 3.9°C (39°F) [RH = 100%]
Pressure (altimeter): 29.91 inches Hg (1013.0 mb)
Winds: from the WSW (240 degrees) at 10 MPH (9 knots; 4.6 m/s)
Visibility: 0.25 miles (0.40 km)
Ceiling: indefinite ceiling with vertical visibility of 200 feet AGL
Clouds: obscured sky
Weather: FG  (fog)

METAR text: KIND 210554Z 24008KT 1/8SM R05L/1800FT FG VV002 04/04 A2991 RMK AO2 SLP132 T00390039 10078 20033 51010
Conditions at: KIND (INDIANAPOLIS , IN, US) observed 0554 UTC 21 April 2019
Temperature: 3.9°C (39°F)
Dewpoint: 3.9°C (39°F) [RH = 100%]
Pressure (altimeter): 29.91 inches Hg (1013.0 mb)
[Sea-level pressure: 1013.2 mb]
Winds: from the WSW (240 degrees) at 9 MPH (8 knots; 4.1 m/s)
Visibility: 0.13 miles (0.21 km)
Ceiling: indefinite ceiling with vertical visibility of 200 feet AGL
Clouds: obscured sky
Weather: FG  (fog)

METAR text: KIND 210538Z 24006KT 1/8SM R05L/1600V2000FT FG VV002 03/03 A2991 RMK AO2 T00330033
Conditions at: KIND (INDIANAPOLIS , IN, US) observed 0538 UTC 21 April 2019
Temperature: 3.3°C (38°F)
Dewpoint: 3.3°C (38°F) [RH = 100%]
Pressure (altimeter): 29.91 inches Hg (1013.0 mb)
Winds: from the WSW (240 degrees) at 7 MPH (6 knots; 3.1 m/s)
Visibility: 0.13 miles (0.21 km)
Ceiling: indefinite ceiling with vertical visibility of 200 feet AGL
Clouds: obscured sky
Weather: FG  (fog)

METAR text: KIND 210504Z 24006KT 1/16SM R05L/1000FT FG VV001 03/03 A2990 RMK AO2 T00330033
Conditions at: KIND (INDIANAPOLIS , IN, US) observed 0504 UTC 21 April 2019
Temperature: 3.3°C (38°F)
Dewpoint: 3.3°C (38°F) [RH = 100%]
Pressure (altimeter): 29.90 inches Hg (1012.6 mb)
Winds: from the WSW (240 degrees) at 7 MPH (6 knots; 3.1 m/s)
Visibility: 0.06 miles (0.10 km)
Ceiling: indefinite ceiling with vertical visibility of 100 feet AGL
Clouds: obscured sky
Weather: FG  (fog)

METAR text: KIND 210454Z 23007KT 1/16SM R05L/1000FT FG VV002 03/03 A2990 RMK AO2 SLP129 T00330033 400780033
Conditions at: KIND (INDIANAPOLIS , IN, US) observed 0454 UTC 21 April 2019
Temperature: 3.3°C (38°F)
Dewpoint: 3.3°C (38°F) [RH = 100%]
Pressure (altimeter): 29.90 inches Hg (1012.6 mb)
[Sea-level pressure: 1012.9 mb]
Winds: from the SW (230 degrees) at 8 MPH (7 knots; 3.6 m/s)
Visibility: 0.06 miles (0.10 km)
Ceiling: indefinite ceiling with vertical visibility of 200 feet AGL
Clouds: obscured sky
Weather: FG  (fog)

METAR text: KIND 210447Z 24007KT 1/16SM R05L/1000V1200FT FG VV002 03/03 A2990 RMK AO2 T00330033
Conditions at: KIND (INDIANAPOLIS , IN, US) observed 0447 UTC 21 April 2019
Temperature: 3.3°C (38°F)
Dewpoint: 3.3°C (38°F) [RH = 100%]
Pressure (altimeter): 29.90 inches Hg (1012.6 mb)
Winds: from the WSW (240 degrees) at 8 MPH (7 knots; 3.6 m/s)
Visibility: 0.06 miles (0.10 km)
Ceiling: indefinite ceiling with vertical visibility of 200 feet AGL
Clouds: obscured sky
Weather: FG  (fog)

METAR text: KIND 210443Z 23006KT 1/8SM R05L/1200V2600FT FG FEW070 03/03 A2990 RMK AO2 T00330033
Conditions at: KIND (INDIANAPOLIS , IN, US) observed 0443 UTC 21 April 2019
Temperature: 3.3°C (38°F)
Dewpoint: 3.3°C (38°F) [RH = 100%]
Pressure (altimeter): 29.90 inches Hg (1012.6 mb)
Winds: from the SW (230 degrees) at 7 MPH (6 knots; 3.1 m/s)
Visibility: 0.13 miles (0.21 km)
Ceiling: at least 12,000 feet AGL
Clouds: few clouds at 7000 feet AGL
Weather: FG  (fog)

METAR text: KIND 210413Z COR 24005KT 1/2SM R05L/2600VP6000FT FG FEW070 03/03 A2989 RMK AO2 T00330033
Conditions at: KIND (INDIANAPOLIS , IN, US) observed 0413 UTC 21 April 2019
Temperature: 3.3°C (38°F)
Dewpoint: 3.3°C (38°F) [RH = 100%]
Pressure (altimeter): 29.89 inches Hg (1012.3 mb)
Winds: from the WSW (240 degrees) at 6 MPH (5 knots; 2.6 m/s)
Visibility: 0.50 miles (0.80 km)
Ceiling: at least 12,000 feet AGL
Clouds: few clouds at 7000 feet AGL
Weather: FG  (fog)

METAR text: KIND 210354Z 25005KT 2 1/2SM R05L/2000V2600FT BCFG BR FEW070 03/03 A2989 RMK AO2 SLP125 T00330033
Conditions at: KIND (INDIANAPOLIS , IN, US) observed 0354 UTC 21 April 2019
Temperature: 3.3°C (38°F)
Dewpoint: 3.3°C (38°F) [RH = 100%]
Pressure (altimeter): 29.89 inches Hg (1012.3 mb)
[Sea-level pressure: 1012.5 mb]
Winds: from the WSW (250 degrees) at 6 MPH (5 knots; 2.6 m/s)
Visibility: 2.50 miles (4.02 km)
Ceiling: at least 12,000 feet AGL
Clouds: few clouds at 7000 feet AGL
Weather: BCFG BR  (patches of fog, mist)

METAR text: KIND 210254Z 25005KT 10SM R05L/6000VP6000FT FEW070 05/04 A2988 RMK AO2 SLP122 T00500039 51020
Conditions at: KIND (INDIANAPOLIS , IN, US) observed 0254 UTC 21 April 2019
Temperature: 5.0°C (41°F)
Dewpoint: 3.9°C (39°F) [RH = 93%]
Pressure (altimeter): 29.88 inches Hg (1011.9 mb)
[Sea-level pressure: 1012.2 mb]
Winds: from the WSW (250 degrees) at 6 MPH (5 knots; 2.6 m/s)
Visibility: 10 or more miles (16+ km)
Ceiling: at least 12,000 feet AGL
Clouds: few clouds at 7000 feet AGL
Weather: no significant weather observed at this time

Forecast for: KIND (INDIANAPOLIS , IN, US)
Text: KIND 221430Z 2214/2318 16005KT P6SM FEW150
Forecast period: 1400 UTC 22 April 2019 to 0600 UTC 23 April 2019
Forecast type: FROM: standard forecast or significant change
Winds: from the SSE (160 degrees) at 6 MPH (5 knots; 2.6 m/s)
Visibility: 6 or more miles 10+ km)
Ceiling: at least 12,000 feet AGL
Clouds: few clouds at 15000 feet AGL
Weather: no significant weather forecast for this period
Text: FM230600 19008KT P6SM SCT150 WS020/22040KT
Forecast period: 0600 to 1000 UTC 23 April 2019
Forecast type: FROM: standard forecast or significant change
Winds: from the S (190 degrees) at 9 MPH (8 knots; 4.1 m/s)
Visibility: 6 or more miles 10+ km)
Ceiling: at least 12,000 feet AGL
Clouds: scattered clouds at 15000 feet AGL
Wind Shear: at 2000 feet ( 610 m) AGL, from the SW (220 degrees) at 46 MPH (40 knots; 20.8 m/s)
Weather: no significant weather forecast for this period
Text: FM231000 21008KT P6SM BKN050
Forecast period: 1000 to 1300 UTC 23 April 2019
Forecast type: FROM: standard forecast or significant change
Winds: from the SSW (210 degrees) at 9 MPH (8 knots; 4.1 m/s)
Visibility: 6 or more miles 10+ km)
Ceiling: 5000 feet AGL
Clouds: broken clouds at 5000 feet AGL
Weather: no significant weather forecast for this period
Text: FM231300 23007KT P6SM BKN022
Forecast period: 1300 to 1700 UTC 23 April 2019
Forecast type: FROM: standard forecast or significant change
Winds: from the SW (230 degrees) at 8 MPH (7 knots; 3.6 m/s)
Visibility: 6 or more miles 10+ km)
Ceiling: 2200 feet AGL
Clouds: broken clouds at 2200 feet AGL
Weather: no significant weather forecast for this period
Text: FM231700 26010KT P6SM BKN015
Forecast period: 1700 to 1800 UTC 23 April 2019
Forecast type: FROM: standard forecast or significant change
Winds: from the W (260 degrees) at 12 MPH (10 knots; 5.1 m/s)
Visibility: 6 or more miles 10+ km)
Ceiling: 1500 feet AGL
Clouds: broken clouds at 1500 feet AGL
Weather: no significant weather forecast for this period